Terminal Aerodrome Forecast
Issued by NWS Melbourne, FL

Home | Current Version | Previous Version | Text Only | Print | Product List | Glossary On
Versions: 1 2 3 4 5 6 7 8 9 10 11 12 13 14 15 16 17 18
000
FTUS42 KMLB 261700
TAFMLB
TAF
KMLB 261720Z 2618/2718 05007KT P6SM OVC035
     FM270000 03005KT P6SM OVC035
     FM270900 04005KT 5SM BR BKN010
     FM271500 08007KT P6SM BKN025=

USA.gov is the U.S. government's official web portal to all federal, state and local government web resources and services.